sensor_id;sensor_type;location;lat;lon;timestamp;P1;durP1;ratioP1;P2;durP2;ratioP2
11496;SDS011;5805;51.542;7.230;2023-02-02T00:02:04;8.18;;;1.77;;
11496;SDS011;5805;51.542;7.230;2023-02-02T00:04:30;3.22;;;1.38;;
11496;SDS011;5805;51.542;7.230;2023-02-02T00:06:57;3.92;;;1.50;;
11496;SDS011;5805;51.542;7.230;2023-02-02T00:09:25;8.32;;;1.60;;
11496;SDS011;5805;51.542;7.230;2023-02-02T00:11:51;9.57;;;1.80;;
11496;SDS011;5805;51.542;7.230;2023-02-02T00:14:18;8.65;;;1.67;;
11496;SDS011;5805;51.542;7.230;2023-02-02T00:16:44;11.88;;;1.73;;
11496;SDS011;5805;51.542;7.230;2023-02-02T00:19:12;8.38;;;2.00;;
11496;SDS011;5805;51.542;7.230;2023-02-02T00:21:39;7.32;;;1.88;;
11496;SDS011;5805;51.542;7.230;2023-02-02T00:24:05;11.20;;;2.67;;
11496;SDS011;5805;51.542;7.230;2023-02-02T00:26:31;4.85;;;1.83;;
11496;SDS011;5805;51.542;7.230;2023-02-02T00:28:57;2.65;;;1.67;;
11496;SDS011;5805;51.542;7.230;2023-02-02T00:31:24;3.58;;;1.75;;
11496;SDS011;5805;51.542;7.230;2023-02-02T00:33:50;7.32;;;2.33;;
11496;SDS011;5805;51.542;7.230;2023-02-02T00:36:16;9.35;;;2.28;;
11496;SDS011;5805;51.542;7.230;2023-02-02T00:38:44;6.88;;;2.42;;
11496;SDS011;5805;51.542;7.230;2023-02-02T00:41:10;7.45;;;2.05;;
11496;SDS011;5805;51.542;7.230;2023-02-02T00:43:35;11.00;;;2.25;;
11496;SDS011;5805;51.542;7.230;2023-02-02T00:46:01;8.45;;;3.00;;
11496;SDS011;5805;51.542;7.230;2023-02-02T00:48:29;9.15;;;2.40;;
11496;SDS011;5805;51.542;7.230;2023-02-02T00:50:54;6.97;;;2.30;;
11496;SDS011;5805;51.542;7.230;2023-02-02T00:53:20;9.38;;;2.40;;
11496;SDS011;5805;51.542;7.230;2023-02-02T00:55:46;7.30;;;2.67;;
11496;SDS011;5805;51.542;7.230;2023-02-02T00:58:11;6.25;;;2.22;;
11496;SDS011;5805;51.542;7.230;2023-02-02T01:00:37;10.48;;;3.00;;
11496;SDS011;5805;51.542;7.230;2023-02-02T01:03:03;7.95;;;2.38;;
11496;SDS011;5805;51.542;7.230;2023-02-02T01:05:30;9.70;;;2.75;;
11496;SDS011;5805;51.542;7.230;2023-02-02T01:07:56;6.47;;;2.90;;
11496;SDS011;5805;51.542;7.230;2023-02-02T01:10:22;7.35;;;2.97;;
11496;SDS011;5805;51.542;7.230;2023-02-02T01:12:48;8.98;;;2.55;;
11496;SDS011;5805;51.542;7.230;2023-02-02T01:15:13;8.02;;;2.70;;
11496;SDS011;5805;51.542;7.230;2023-02-02T01:17:39;8.48;;;2.85;;
11496;SDS011;5805;51.542;7.230;2023-02-02T01:20:06;8.68;;;2.47;;
11496;SDS011;5805;51.542;7.230;2023-02-02T01:22:34;9.30;;;2.38;;
11496;SDS011;5805;51.542;7.230;2023-02-02T01:25:00;6.13;;;2.28;;
11496;SDS011;5805;51.542;7.230;2023-02-02T01:27:25;10.70;;;2.25;;
11496;SDS011;5805;51.542;7.230;2023-02-02T01:29:51;9.13;;;2.75;;
11496;SDS011;5805;51.542;7.230;2023-02-02T01:32:17;9.43;;;2.65;;
11496;SDS011;5805;51.542;7.230;2023-02-02T01:34:42;7.18;;;2.30;;
11496;SDS011;5805;51.542;7.230;2023-02-02T01:37:08;10.63;;;2.25;;
11496;SDS011;5805;51.542;7.230;2023-02-02T01:39:36;6.43;;;2.28;;
11496;SDS011;5805;51.542;7.230;2023-02-02T01:42:02;8.30;;;2.42;;
11496;SDS011;5805;51.542;7.230;2023-02-02T01:47:29;9.68;;;2.40;;
11496;SDS011;5805;51.542;7.230;2023-02-02T01:49:58;10.60;;;2.35;;
11496;SDS011;5805;51.542;7.230;2023-02-02T01:52:25;7.28;;;2.83;;
11496;SDS011;5805;51.542;7.230;2023-02-02T01:54:55;9.25;;;2.85;;
11496;SDS011;5805;51.542;7.230;2023-02-02T01:57:26;10.45;;;2.20;;
11496;SDS011;5805;51.542;7.230;2023-02-02T01:59:57;12.00;;;2.60;;
11496;SDS011;5805;51.542;7.230;2023-02-02T02:02:25;8.32;;;2.63;;
11496;SDS011;5805;51.542;7.230;2023-02-02T02:04:52;8.35;;;3.50;;
11496;SDS011;5805;51.542;7.230;2023-02-02T02:07:19;7.53;;;2.63;;
11496;SDS011;5805;51.542;7.230;2023-02-02T02:09:45;7.05;;;3.05;;
11496;SDS011;5805;51.542;7.230;2023-02-02T02:12:12;9.70;;;3.40;;
11496;SDS011;5805;51.542;7.230;2023-02-02T02:14:39;8.98;;;3.30;;
11496;SDS011;5805;51.542;7.230;2023-02-02T02:17:11;16.70;;;3.80;;
11496;SDS011;5805;51.542;7.230;2023-02-02T02:19:51;11.93;;;3.50;;
11496;SDS011;5805;51.542;7.230;2023-02-02T02:25:45;12.30;;;4.22;;
11496;SDS011;5805;51.542;7.230;2023-02-02T02:28:32;8.13;;;4.18;;
11496;SDS011;5805;51.542;7.230;2023-02-02T02:34:13;20.95;;;4.68;;
11496;SDS011;5805;51.542;7.230;2023-02-02T02:36:43;18.90;;;4.40;;
11496;SDS011;5805;51.542;7.230;2023-02-02T02:39:16;12.07;;;4.90;;
11496;SDS011;5805;51.542;7.230;2023-02-02T02:41:47;17.63;;;4.88;;
11496;SDS011;5805;51.542;7.230;2023-02-02T02:44:15;16.35;;;5.38;;
11496;SDS011;5805;51.542;7.230;2023-02-02T02:46:42;18.63;;;4.70;;
11496;SDS011;5805;51.542;7.230;2023-02-02T02:49:10;13.57;;;4.50;;
11496;SDS011;5805;51.542;7.230;2023-02-02T02:54:21;14.70;;;4.68;;
11496;SDS011;5805;51.542;7.230;2023-02-02T02:56:56;25.35;;;5.47;;
11496;SDS011;5805;51.542;7.230;2023-02-02T02:59:34;17.38;;;4.90;;
11496;SDS011;5805;51.542;7.230;2023-02-02T03:02:12;14.73;;;4.43;;
11496;SDS011;5805;51.542;7.230;2023-02-02T03:04:49;13.57;;;4.32;;
11496;SDS011;5805;51.542;7.230;2023-02-02T03:07:25;16.55;;;4.75;;
11496;SDS011;5805;51.542;7.230;2023-02-02T03:09:56;15.05;;;4.35;;
11496;SDS011;5805;51.542;7.230;2023-02-02T03:12:24;13.93;;;3.83;;
11496;SDS011;5805;51.542;7.230;2023-02-02T03:14:50;17.20;;;4.20;;
11496;SDS011;5805;51.542;7.230;2023-02-02T03:17:17;14.95;;;3.70;;
11496;SDS011;5805;51.542;7.230;2023-02-02T03:19:42;12.88;;;3.22;;
11496;SDS011;5805;51.542;7.230;2023-02-02T03:22:08;15.23;;;3.65;;
11496;SDS011;5805;51.542;7.230;2023-02-02T03:24:34;14.82;;;3.83;;
11496;SDS011;5805;51.542;7.230;2023-02-02T03:26:59;14.57;;;3.13;;
11496;SDS011;5805;51.542;7.230;2023-02-02T03:29:25;16.60;;;2.92;;
11496;SDS011;5805;51.542;7.230;2023-02-02T03:31:52;11.88;;;3.08;;
11496;SDS011;5805;51.542;7.230;2023-02-02T03:34:19;10.23;;;2.50;;
11496;SDS011;5805;51.542;7.230;2023-02-02T03:36:44;9.85;;;2.40;;
11496;SDS011;5805;51.542;7.230;2023-02-02T03:39:10;5.13;;;1.60;;
11496;SDS011;5805;51.542;7.230;2023-02-02T03:41:36;11.63;;;1.88;;
11496;SDS011;5805;51.542;7.230;2023-02-02T03:44:01;7.75;;;1.98;;
11496;SDS011;5805;51.542;7.230;2023-02-02T03:46:27;8.48;;;2.20;;
11496;SDS011;5805;51.542;7.230;2023-02-02T03:48:53;9.90;;;2.40;;
11496;SDS011;5805;51.542;7.230;2023-02-02T03:51:20;9.25;;;2.22;;
11496;SDS011;5805;51.542;7.230;2023-02-02T03:53:45;8.02;;;2.30;;
11496;SDS011;5805;51.542;7.230;2023-02-02T03:56:11;7.82;;;2.03;;
11496;SDS011;5805;51.542;7.230;2023-02-02T03:58:37;7.53;;;2.22;;
11496;SDS011;5805;51.542;7.230;2023-02-02T04:01:03;7.10;;;2.20;;
11496;SDS011;5805;51.542;7.230;2023-02-02T04:03:30;7.72;;;2.28;;
11496;SDS011;5805;51.542;7.230;2023-02-02T04:05:56;5.32;;;1.88;;
11496;SDS011;5805;51.542;7.230;2023-02-02T04:08:23;9.65;;;2.50;;
11496;SDS011;5805;51.542;7.230;2023-02-02T04:10:48;8.75;;;2.03;;
11496;SDS011;5805;51.542;7.230;2023-02-02T04:13:14;10.13;;;2.20;;
11496;SDS011;5805;51.542;7.230;2023-02-02T04:15:40;5.43;;;2.15;;
11496;SDS011;5805;51.542;7.230;2023-02-02T04:18:05;9.38;;;2.97;;
11496;SDS011;5805;51.542;7.230;2023-02-02T04:20:31;7.82;;;2.05;;
11496;SDS011;5805;51.542;7.230;2023-02-02T04:22:57;7.60;;;2.80;;
11496;SDS011;5805;51.542;7.230;2023-02-02T04:25:24;5.95;;;2.72;;
11496;SDS011;5805;51.542;7.230;2023-02-02T04:27:50;5.45;;;2.90;;
11496;SDS011;5805;51.542;7.230;2023-02-02T04:30:16;8.55;;;3.38;;
11496;SDS011;5805;51.542;7.230;2023-02-02T04:32:42;7.05;;;3.55;;
11496;SDS011;5805;51.542;7.230;2023-02-02T04:35:08;6.47;;;3.70;;
11496;SDS011;5805;51.542;7.230;2023-02-02T04:37:33;9.55;;;4.13;;
11496;SDS011;5805;51.542;7.230;2023-02-02T04:39:59;11.40;;;4.80;;
11496;SDS011;5805;51.542;7.230;2023-02-02T04:42:26;9.95;;;4.65;;
11496;SDS011;5805;51.542;7.230;2023-02-02T04:44:52;9.80;;;5.03;;
11496;SDS011;5805;51.542;7.230;2023-02-02T04:47:17;8.60;;;4.93;;
11496;SDS011;5805;51.542;7.230;2023-02-02T04:49:43;8.88;;;5.00;;
11496;SDS011;5805;51.542;7.230;2023-02-02T04:52:09;12.80;;;5.65;;
11496;SDS011;5805;51.542;7.230;2023-02-02T04:54:35;12.77;;;6.18;;
11496;SDS011;5805;51.542;7.230;2023-02-02T04:57:00;15.32;;;7.10;;
11496;SDS011;5805;51.542;7.230;2023-02-02T04:59:28;21.65;;;7.10;;
11496;SDS011;5805;51.542;7.230;2023-02-02T05:01:54;17.33;;;7.50;;
11496;SDS011;5805;51.542;7.230;2023-02-02T05:04:19;22.30;;;7.68;;
11496;SDS011;5805;51.542;7.230;2023-02-02T05:06:45;22.05;;;8.48;;
11496;SDS011;5805;51.542;7.230;2023-02-02T05:09:11;20.65;;;8.25;;
11496;SDS011;5805;51.542;7.230;2023-02-02T05:11:36;20.40;;;8.63;;
11496;SDS011;5805;51.542;7.230;2023-02-02T05:14:04;20.15;;;7.95;;
11496;SDS011;5805;51.542;7.230;2023-02-02T05:16:31;17.60;;;7.60;;
11496;SDS011;5805;51.542;7.230;2023-02-02T05:18:57;18.35;;;7.93;;
11496;SDS011;5805;51.542;7.230;2023-02-02T05:21:23;20.25;;;8.18;;
11496;SDS011;5805;51.542;7.230;2023-02-02T05:23:48;25.30;;;7.70;;
11496;SDS011;5805;51.542;7.230;2023-02-02T05:26:16;24.45;;;8.05;;
11496;SDS011;5805;51.542;7.230;2023-02-02T05:28:45;20.30;;;6.93;;
11496;SDS011;5805;51.542;7.230;2023-02-02T05:31:10;21.02;;;7.63;;
11496;SDS011;5805;51.542;7.230;2023-02-02T05:33:37;19.27;;;7.50;;
11496;SDS011;5805;51.542;7.230;2023-02-02T05:36:03;26.65;;;7.82;;
11496;SDS011;5805;51.542;7.230;2023-02-02T05:38:30;27.00;;;7.43;;
11496;SDS011;5805;51.542;7.230;2023-02-02T05:40:56;28.80;;;7.65;;
11496;SDS011;5805;51.542;7.230;2023-02-02T05:43:23;22.40;;;7.03;;
11496;SDS011;5805;51.542;7.230;2023-02-02T05:45:49;24.38;;;8.55;;
11496;SDS011;5805;51.542;7.230;2023-02-02T05:48:15;22.48;;;7.47;;
11496;SDS011;5805;51.542;7.230;2023-02-02T05:50:42;25.55;;;7.15;;
11496;SDS011;5805;51.542;7.230;2023-02-02T05:53:11;29.70;;;8.18;;
11496;SDS011;5805;51.542;7.230;2023-02-02T05:55:37;28.15;;;7.72;;
11496;SDS011;5805;51.542;7.230;2023-02-02T05:58:03;20.58;;;8.50;;
11496;SDS011;5805;51.542;7.230;2023-02-02T06:00:29;27.27;;;7.88;;
11496;SDS011;5805;51.542;7.230;2023-02-02T06:02:54;22.30;;;7.18;;
11496;SDS011;5805;51.542;7.230;2023-02-02T06:05:20;21.08;;;8.00;;
11496;SDS011;5805;51.542;7.230;2023-02-02T06:07:47;22.60;;;7.18;;
11496;SDS011;5805;51.542;7.230;2023-02-02T06:10:13;22.42;;;7.00;;
11496;SDS011;5805;51.542;7.230;2023-02-02T06:12:38;20.35;;;6.45;;
11496;SDS011;5805;51.542;7.230;2023-02-02T06:15:05;18.40;;;6.45;;
11496;SDS011;5805;51.542;7.230;2023-02-02T06:17:31;21.95;;;7.63;;
11496;SDS011;5805;51.542;7.230;2023-02-02T06:19:57;20.67;;;6.80;;
11496;SDS011;5805;51.542;7.230;2023-02-02T06:22:24;12.95;;;5.38;;
11496;SDS011;5805;51.542;7.230;2023-02-02T06:24:51;15.13;;;5.97;;
11496;SDS011;5805;51.542;7.230;2023-02-02T06:27:16;13.82;;;6.07;;
11496;SDS011;5805;51.542;7.230;2023-02-02T06:29:42;23.38;;;6.90;;
11496;SDS011;5805;51.542;7.230;2023-02-02T06:32:07;17.58;;;6.78;;
11496;SDS011;5805;51.542;7.230;2023-02-02T06:34:33;19.23;;;6.25;;
11496;SDS011;5805;51.542;7.230;2023-02-02T06:36:59;16.50;;;5.95;;
11496;SDS011;5805;51.542;7.230;2023-02-02T06:39:24;17.85;;;5.75;;
11496;SDS011;5805;51.542;7.230;2023-02-02T06:41:51;23.67;;;6.90;;
11496;SDS011;5805;51.542;7.230;2023-02-02T06:44:17;17.63;;;5.00;;
11496;SDS011;5805;51.542;7.230;2023-02-02T06:46:43;19.52;;;5.97;;
11496;SDS011;5805;51.542;7.230;2023-02-02T06:49:09;19.33;;;6.10;;
11496;SDS011;5805;51.542;7.230;2023-02-02T06:51:34;14.38;;;5.55;;
11496;SDS011;5805;51.542;7.230;2023-02-02T06:54:00;16.35;;;5.72;;
11496;SDS011;5805;51.542;7.230;2023-02-02T06:56:26;20.92;;;5.63;;
11496;SDS011;5805;51.542;7.230;2023-02-02T06:58:53;16.58;;;5.97;;
11496;SDS011;5805;51.542;7.230;2023-02-02T07:01:18;20.67;;;6.05;;
11496;SDS011;5805;51.542;7.230;2023-02-02T07:03:46;17.45;;;6.25;;
11496;SDS011;5805;51.542;7.230;2023-02-02T07:06:13;20.23;;;6.10;;
11496;SDS011;5805;51.542;7.230;2023-02-02T07:08:40;22.40;;;5.93;;
11496;SDS011;5805;51.542;7.230;2023-02-02T07:11:06;18.70;;;6.40;;
11496;SDS011;5805;51.542;7.230;2023-02-02T07:13:32;21.10;;;5.82;;
11496;SDS011;5805;51.542;7.230;2023-02-02T07:15:59;21.10;;;6.40;;
11496;SDS011;5805;51.542;7.230;2023-02-02T07:18:25;18.10;;;5.80;;
11496;SDS011;5805;51.542;7.230;2023-02-02T07:20:50;24.75;;;6.68;;
11496;SDS011;5805;51.542;7.230;2023-02-02T07:23:16;17.27;;;5.75;;
11496;SDS011;5805;51.542;7.230;2023-02-02T07:25:42;17.60;;;5.65;;
11496;SDS011;5805;51.542;7.230;2023-02-02T07:28:07;13.55;;;4.82;;
11496;SDS011;5805;51.542;7.230;2023-02-02T07:30:33;21.52;;;6.90;;
11496;SDS011;5805;51.542;7.230;2023-02-02T07:33:00;22.40;;;6.35;;
11496;SDS011;5805;51.542;7.230;2023-02-02T07:35:26;18.15;;;6.05;;
11496;SDS011;5805;51.542;7.230;2023-02-02T07:37:51;19.02;;;6.18;;
11496;SDS011;5805;51.542;7.230;2023-02-02T07:40:17;15.52;;;6.03;;
11496;SDS011;5805;51.542;7.230;2023-02-02T07:42:44;21.30;;;7.47;;
11496;SDS011;5805;51.542;7.230;2023-02-02T07:45:10;19.25;;;8.10;;
11496;SDS011;5805;51.542;7.230;2023-02-02T07:47:36;24.35;;;8.77;;
11496;SDS011;5805;51.542;7.230;2023-02-02T07:50:03;22.15;;;9.77;;
11496;SDS011;5805;51.542;7.230;2023-02-02T07:52:29;21.83;;;7.03;;
11496;SDS011;5805;51.542;7.230;2023-02-02T07:54:54;22.38;;;6.35;;
11496;SDS011;5805;51.542;7.230;2023-02-02T07:57:20;19.63;;;6.95;;
11496;SDS011;5805;51.542;7.230;2023-02-02T07:59:46;16.85;;;6.75;;
11496;SDS011;5805;51.542;7.230;2023-02-02T08:02:11;18.73;;;6.10;;
11496;SDS011;5805;51.542;7.230;2023-02-02T08:04:37;15.63;;;7.05;;
11496;SDS011;5805;51.542;7.230;2023-02-02T08:07:04;17.15;;;6.22;;
11496;SDS011;5805;51.542;7.230;2023-02-02T08:09:30;19.08;;;7.35;;
11496;SDS011;5805;51.542;7.230;2023-02-02T08:11:55;14.43;;;6.18;;
11496;SDS011;5805;51.542;7.230;2023-02-02T08:14:21;13.27;;;6.07;;
11496;SDS011;5805;51.542;7.230;2023-02-02T08:16:46;16.63;;;7.00;;
11496;SDS011;5805;51.542;7.230;2023-02-02T08:19:12;19.17;;;7.05;;
11496;SDS011;5805;51.542;7.230;2023-02-02T08:21:38;16.00;;;7.05;;
11496;SDS011;5805;51.542;7.230;2023-02-02T08:24:05;17.17;;;7.18;;
11496;SDS011;5805;51.542;7.230;2023-02-02T08:26:31;16.27;;;6.78;;
11496;SDS011;5805;51.542;7.230;2023-02-02T08:28:58;14.90;;;7.00;;
11496;SDS011;5805;51.542;7.230;2023-02-02T08:31:26;17.15;;;6.43;;
11496;SDS011;5805;51.542;7.230;2023-02-02T08:33:54;17.50;;;6.95;;
11496;SDS011;5805;51.542;7.230;2023-02-02T08:36:20;16.48;;;7.45;;
11496;SDS011;5805;51.542;7.230;2023-02-02T08:38:47;20.50;;;7.78;;
11496;SDS011;5805;51.542;7.230;2023-02-02T08:41:16;15.65;;;7.25;;
11496;SDS011;5805;51.542;7.230;2023-02-02T08:43:43;19.40;;;7.68;;
11496;SDS011;5805;51.542;7.230;2023-02-02T08:46:10;14.38;;;6.75;;
11496;SDS011;5805;51.542;7.230;2023-02-02T08:48:37;17.95;;;8.13;;
11496;SDS011;5805;51.542;7.230;2023-02-02T08:51:03;19.70;;;8.52;;
11496;SDS011;5805;51.542;7.230;2023-02-02T08:53:30;19.52;;;8.30;;
11496;SDS011;5805;51.542;7.230;2023-02-02T08:55:56;18.98;;;11.05;;
11496;SDS011;5805;51.542;7.230;2023-02-02T08:58:24;12.18;;;7.63;;
11496;SDS011;5805;51.542;7.230;2023-02-02T09:00:50;18.48;;;7.72;;
11496;SDS011;5805;51.542;7.230;2023-02-02T09:03:16;16.17;;;7.63;;
11496;SDS011;5805;51.542;7.230;2023-02-02T09:05:41;17.88;;;6.95;;
11496;SDS011;5805;51.542;7.230;2023-02-02T09:08:07;18.73;;;7.60;;
11496;SDS011;5805;51.542;7.230;2023-02-02T09:10:33;13.32;;;6.43;;
11496;SDS011;5805;51.542;7.230;2023-02-02T09:12:59;12.75;;;7.07;;
11496;SDS011;5805;51.542;7.230;2023-02-02T09:15:26;13.25;;;7.07;;
11496;SDS011;5805;51.542;7.230;2023-02-02T09:17:52;12.80;;;6.40;;
11496;SDS011;5805;51.542;7.230;2023-02-02T09:20:18;15.80;;;7.18;;
11496;SDS011;5805;51.542;7.230;2023-02-02T09:22:44;14.27;;;6.95;;
11496;SDS011;5805;51.542;7.230;2023-02-02T09:25:09;12.50;;;6.53;;
11496;SDS011;5805;51.542;7.230;2023-02-02T09:27:35;11.73;;;6.75;;
11496;SDS011;5805;51.542;7.230;2023-02-02T09:30:01;12.40;;;6.47;;
11496;SDS011;5805;51.542;7.230;2023-02-02T09:32:29;12.43;;;7.07;;
11496;SDS011;5805;51.542;7.230;2023-02-02T09:34:55;11.55;;;6.82;;
11496;SDS011;5805;51.542;7.230;2023-02-02T09:37:20;14.13;;;6.47;;
11496;SDS011;5805;51.542;7.230;2023-02-02T09:39:46;11.70;;;6.93;;
11496;SDS011;5805;51.542;7.230;2023-02-02T09:42:21;9.27;;;6.50;;
11496;SDS011;5805;51.542;7.230;2023-02-02T09:45:07;11.93;;;6.40;;
11496;SDS011;5805;51.542;7.230;2023-02-02T09:47:46;14.07;;;6.88;;
11496;SDS011;5805;51.542;7.230;2023-02-02T09:50:19;8.80;;;5.70;;
11496;SDS011;5805;51.542;7.230;2023-02-02T09:53:01;14.25;;;6.35;;
11496;SDS011;5805;51.542;7.230;2023-02-02T09:55:35;8.27;;;6.47;;
11496;SDS011;5805;51.542;7.230;2023-02-02T09:58:05;10.38;;;6.43;;
11496;SDS011;5805;51.542;7.230;2023-02-02T10:00:36;12.30;;;6.13;;
11496;SDS011;5805;51.542;7.230;2023-02-02T10:03:09;11.00;;;6.25;;
11496;SDS011;5805;51.542;7.230;2023-02-02T10:05:42;14.15;;;6.18;;
11496;SDS011;5805;51.542;7.230;2023-02-02T10:08:12;11.75;;;6.00;;
11496;SDS011;5805;51.542;7.230;2023-02-02T10:10:42;12.55;;;6.80;;
11496;SDS011;5805;51.542;7.230;2023-02-02T10:13:12;9.68;;;5.88;;
11496;SDS011;5805;51.542;7.230;2023-02-02T10:15:43;13.85;;;5.28;;
11496;SDS011;5805;51.542;7.230;2023-02-02T10:18:18;13.40;;;7.10;;
11496;SDS011;5805;51.542;7.230;2023-02-02T10:20:53;9.73;;;6.25;;
11496;SDS011;5805;51.542;7.230;2023-02-02T10:23:24;9.43;;;5.88;;
11496;SDS011;5805;51.542;7.230;2023-02-02T10:25:56;17.15;;;7.03;;
11496;SDS011;5805;51.542;7.230;2023-02-02T10:28:30;13.43;;;7.25;;
11496;SDS011;5805;51.542;7.230;2023-02-02T10:31:06;13.95;;;8.45;;
11496;SDS011;5805;51.542;7.230;2023-02-02T10:33:42;15.80;;;7.53;;
11496;SDS011;5805;51.542;7.230;2023-02-02T10:36:15;16.63;;;9.25;;
11496;SDS011;5805;51.542;7.230;2023-02-02T10:38:49;17.92;;;8.05;;
11496;SDS011;5805;51.542;7.230;2023-02-02T10:41:23;18.85;;;7.68;;
11496;SDS011;5805;51.542;7.230;2023-02-02T10:43:59;20.02;;;7.72;;
11496;SDS011;5805;51.542;7.230;2023-02-02T10:46:33;14.68;;;8.27;;
11496;SDS011;5805;51.542;7.230;2023-02-02T10:49:15;20.65;;;7.63;;
11496;SDS011;5805;51.542;7.230;2023-02-02T10:51:48;23.05;;;8.40;;
11496;SDS011;5805;51.542;7.230;2023-02-02T10:54:27;20.67;;;8.52;;
11496;SDS011;5805;51.542;7.230;2023-02-02T10:56:58;17.92;;;9.35;;
11496;SDS011;5805;51.542;7.230;2023-02-02T10:59:28;18.08;;;8.23;;
11496;SDS011;5805;51.542;7.230;2023-02-02T11:01:57;16.10;;;7.70;;
11496;SDS011;5805;51.542;7.230;2023-02-02T11:04:24;18.85;;;7.93;;
11496;SDS011;5805;51.542;7.230;2023-02-02T11:06:50;15.52;;;7.40;;
11496;SDS011;5805;51.542;7.230;2023-02-02T11:09:16;18.65;;;8.07;;
11496;SDS011;5805;51.542;7.230;2023-02-02T11:11:44;20.35;;;8.05;;
11496;SDS011;5805;51.542;7.230;2023-02-02T11:14:14;19.13;;;6.75;;
11496;SDS011;5805;51.542;7.230;2023-02-02T11:16:41;24.75;;;8.90;;
11496;SDS011;5805;51.542;7.230;2023-02-02T11:19:20;18.67;;;6.80;;
11496;SDS011;5805;51.542;7.230;2023-02-02T11:21:53;23.75;;;7.45;;
11496;SDS011;5805;51.542;7.230;2023-02-02T11:24:21;27.25;;;7.70;;
11496;SDS011;5805;51.542;7.230;2023-02-02T11:26:51;11.27;;;6.45;;
11496;SDS011;5805;51.542;7.230;2023-02-02T11:29:20;16.88;;;6.38;;
11496;SDS011;5805;51.542;7.230;2023-02-02T11:31:50;13.63;;;6.25;;
11496;SDS011;5805;51.542;7.230;2023-02-02T11:34:17;20.63;;;6.65;;
11496;SDS011;5805;51.542;7.230;2023-02-02T11:36:59;22.70;;;6.90;;
11496;SDS011;5805;51.542;7.230;2023-02-02T11:39:27;18.35;;;6.18;;
11496;SDS011;5805;51.542;7.230;2023-02-02T11:42:00;20.17;;;5.78;;
11496;SDS011;5805;51.542;7.230;2023-02-02T11:44:28;14.57;;;5.22;;
11496;SDS011;5805;51.542;7.230;2023-02-02T11:46:54;24.73;;;5.97;;
11496;SDS011;5805;51.542;7.230;2023-02-02T11:49:20;17.98;;;7.05;;
11496;SDS011;5805;51.542;7.230;2023-02-02T11:51:54;21.30;;;5.88;;
11496;SDS011;5805;51.542;7.230;2023-02-02T11:54:26;16.70;;;5.55;;
11496;SDS011;5805;51.542;7.230;2023-02-02T11:56:55;20.25;;;6.13;;
11496;SDS011;5805;51.542;7.230;2023-02-02T11:59:26;16.17;;;5.55;;
11496;SDS011;5805;51.542;7.230;2023-02-02T12:04:44;17.52;;;5.25;;
11496;SDS011;5805;51.542;7.230;2023-02-02T12:07:21;19.70;;;5.45;;
11496;SDS011;5805;51.542;7.230;2023-02-02T12:09:50;15.07;;;5.40;;
11496;SDS011;5805;51.542;7.230;2023-02-02T12:12:21;12.98;;;5.40;;
11496;SDS011;5805;51.542;7.230;2023-02-02T12:15:03;13.75;;;4.88;;
11496;SDS011;5805;51.542;7.230;2023-02-02T12:17:39;16.50;;;5.47;;
11496;SDS011;5805;51.542;7.230;2023-02-02T12:20:10;11.63;;;4.60;;
11496;SDS011;5805;51.542;7.230;2023-02-02T12:22:57;8.38;;;4.50;;
11496;SDS011;5805;51.542;7.230;2023-02-02T12:25:54;14.75;;;5.18;;
11496;SDS011;5805;51.542;7.230;2023-02-02T12:28:33;16.42;;;5.10;;
11496;SDS011;5805;51.542;7.230;2023-02-02T12:31:12;22.88;;;5.18;;
11496;SDS011;5805;51.542;7.230;2023-02-02T12:33:49;10.65;;;5.10;;
11496;SDS011;5805;51.542;7.230;2023-02-02T12:36:23;13.65;;;4.97;;
11496;SDS011;5805;51.542;7.230;2023-02-02T12:41:50;15.07;;;4.85;;
11496;SDS011;5805;51.542;7.230;2023-02-02T12:44:31;19.00;;;5.70;;
11496;SDS011;5805;51.542;7.230;2023-02-02T12:47:07;18.10;;;5.82;;
11496;SDS011;5805;51.542;7.230;2023-02-02T12:49:47;17.88;;;5.50;;
11496;SDS011;5805;51.542;7.230;2023-02-02T12:52:30;13.35;;;5.20;;
11496;SDS011;5805;51.542;7.230;2023-02-02T12:55:13;13.88;;;5.57;;
11496;SDS011;5805;51.542;7.230;2023-02-02T12:57:48;10.65;;;5.00;;
11496;SDS011;5805;51.542;7.230;2023-02-02T13:00:24;16.83;;;5.55;;
11496;SDS011;5805;51.542;7.230;2023-02-02T13:03:06;11.70;;;5.60;;
11496;SDS011;5805;51.542;7.230;2023-02-02T13:05:45;14.38;;;6.00;;
11496;SDS011;5805;51.542;7.230;2023-02-02T13:08:20;13.88;;;5.35;;
11496;SDS011;5805;51.542;7.230;2023-02-02T13:10:52;18.13;;;5.28;;
11496;SDS011;5805;51.542;7.230;2023-02-02T13:13:21;11.55;;;5.82;;
11496;SDS011;5805;51.542;7.230;2023-02-02T13:15:51;15.52;;;6.10;;
11496;SDS011;5805;51.542;7.230;2023-02-02T13:18:22;14.25;;;6.47;;
11496;SDS011;5805;51.542;7.230;2023-02-02T13:20:52;14.50;;;6.03;;
11496;SDS011;5805;51.542;7.230;2023-02-02T13:23:22;21.33;;;6.20;;
11496;SDS011;5805;51.542;7.230;2023-02-02T13:25:53;12.02;;;6.47;;
11496;SDS011;5805;51.542;7.230;2023-02-02T13:28:31;18.65;;;7.28;;
11496;SDS011;5805;51.542;7.230;2023-02-02T13:31:02;15.77;;;6.07;;
11496;SDS011;5805;51.542;7.230;2023-02-02T13:33:32;15.73;;;7.05;;
11496;SDS011;5805;51.542;7.230;2023-02-02T13:36:01;19.75;;;7.15;;
11496;SDS011;5805;51.542;7.230;2023-02-02T13:38:29;14.93;;;6.68;;
11496;SDS011;5805;51.542;7.230;2023-02-02T13:40:58;19.20;;;7.25;;
11496;SDS011;5805;51.542;7.230;2023-02-02T13:43:28;22.83;;;7.20;;
11496;SDS011;5805;51.542;7.230;2023-02-02T13:46:05;15.50;;;7.05;;
11496;SDS011;5805;51.542;7.230;2023-02-02T13:48:38;14.55;;;7.28;;
11496;SDS011;5805;51.542;7.230;2023-02-02T13:57:11;15.02;;;6.82;;
11496;SDS011;5805;51.542;7.230;2023-02-02T13:59:59;13.55;;;6.95;;
11496;SDS011;5805;51.542;7.230;2023-02-02T14:02:29;14.25;;;8.05;;
11496;SDS011;5805;51.542;7.230;2023-02-02T14:05:00;19.95;;;7.82;;
11496;SDS011;5805;51.542;7.230;2023-02-02T14:07:31;20.88;;;8.00;;
11496;SDS011;5805;51.542;7.230;2023-02-02T14:10:03;22.02;;;8.20;;
11496;SDS011;5805;51.542;7.230;2023-02-02T14:12:32;14.85;;;7.10;;
11496;SDS011;5805;51.542;7.230;2023-02-02T14:14:59;27.92;;;9.75;;
11496;SDS011;5805;51.542;7.230;2023-02-02T14:26:08;18.20;;;7.95;;
11496;SDS011;5805;51.542;7.230;2023-02-02T14:28:39;20.33;;;9.50;;
11496;SDS011;5805;51.542;7.230;2023-02-02T14:31:16;17.52;;;9.13;;
11496;SDS011;5805;51.542;7.230;2023-02-02T14:36:57;22.00;;;9.18;;
11496;SDS011;5805;51.542;7.230;2023-02-02T14:39:41;12.65;;;8.27;;
11496;SDS011;5805;51.542;7.230;2023-02-02T14:42:20;14.05;;;8.88;;
11496;SDS011;5805;51.542;7.230;2023-02-02T14:45:04;18.02;;;9.35;;
11496;SDS011;5805;51.542;7.230;2023-02-02T14:47:58;14.98;;;8.57;;
11496;SDS011;5805;51.542;7.230;2023-02-02T14:50:32;18.00;;;8.35;;
11496;SDS011;5805;51.542;7.230;2023-02-02T14:55:56;17.33;;;8.88;;
11496;SDS011;5805;51.542;7.230;2023-02-02T14:58:25;18.52;;;10.20;;
11496;SDS011;5805;51.542;7.230;2023-02-02T15:00:57;20.27;;;8.90;;
11496;SDS011;5805;51.542;7.230;2023-02-02T15:03:36;16.27;;;8.77;;
11496;SDS011;5805;51.542;7.230;2023-02-02T15:06:13;15.60;;;8.65;;
11496;SDS011;5805;51.542;7.230;2023-02-02T15:14:48;21.80;;;10.30;;
11496;SDS011;5805;51.542;7.230;2023-02-02T15:17:23;20.38;;;11.82;;
11496;SDS011;5805;51.542;7.230;2023-02-02T15:19:55;23.42;;;13.00;;
11496;SDS011;5805;51.542;7.230;2023-02-02T15:22:31;22.30;;;13.02;;
11496;SDS011;5805;51.542;7.230;2023-02-02T15:25:02;21.27;;;12.57;;
11496;SDS011;5805;51.542;7.230;2023-02-02T15:27:36;20.15;;;12.27;;
11496;SDS011;5805;51.542;7.230;2023-02-02T15:30:03;26.08;;;12.15;;
11496;SDS011;5805;51.542;7.230;2023-02-02T15:32:34;20.25;;;12.10;;
11496;SDS011;5805;51.542;7.230;2023-02-02T15:35:01;23.50;;;12.43;;
11496;SDS011;5805;51.542;7.230;2023-02-02T15:37:29;18.67;;;10.88;;
11496;SDS011;5805;51.542;7.230;2023-02-02T15:39:59;15.82;;;10.55;;
11496;SDS011;5805;51.542;7.230;2023-02-02T15:42:28;19.75;;;11.23;;
11496;SDS011;5805;51.542;7.230;2023-02-02T15:45:02;23.92;;;10.95;;
11496;SDS011;5805;51.542;7.230;2023-02-02T15:47:29;17.35;;;10.70;;